Time;durP1;ratioP1;P1;durP2;ratioP2;P2;SDS_P1;SDS_P2;PMS_P1;PMS_P2;Temp;Humidity;BMP_temperature;BMP_pressure;BME280_temperature;BME280_humidity;BME280_pressure;Samples;Min_cycle;Max_cycle;Signal;HPM_P1;HPM_P2
2021/03/28 06:01:12;;;;;;;12.35;6.90;;;;;;;4.19;72.28;101320.63;1765788;77;27064;31
2021/03/28 06:04:05;;;;;;;12.73;7.08;;;;;;;4.23;71.97;101325.80;1760436;81;25760;-65
2021/03/28 06:06:59;;;;;;;13.98;6.70;;;;;;;4.32;72.15;101334.26;1754699;80;25461;-66
2021/03/28 06:10:06;;;;;;;13.40;7.12;;;;;;;4.36;71.78;101341.58;1788029;80;25513;-66
2021/03/28 06:13:13;;;;;;;10.75;6.78;;;;;;;4.40;71.69;101344.58;1786295;79;25273;-65
2021/03/28 06:16:03;;;;;;;12.37;7.67;;;;;;;4.43;71.71;101344.11;1733775;82;25801;-66
2021/03/28 06:18:58;;;;;;;10.43;6.75;;;;;;;4.43;71.21;101339.55;1727180;81;25322;-65
2021/03/28 06:22:11;;;;;;;12.40;7.12;;;;;;;4.44;71.26;101346.55;1741180;82;25273;-66
2021/03/28 06:25:22;;;;;;;11.55;7.08;;;;;;;4.40;71.08;101345.39;1718644;83;26023;-66
2021/03/28 06:28:00;;;;;;;11.25;7.60;;;;;;;4.42;71.49;101347.83;1747304;81;25351;-66
2021/03/28 06:31:06;;;;;;;12.15;7.75;;;;;;;4.46;71.47;101352.97;1760908;81;25920;-66
2021/03/28 06:34:02;;;;;;;13.08;8.15;;;;;;;4.49;71.44;101360.03;1758651;81;25491;-65
2021/03/28 06:36:59;;;;;;;19.00;9.43;;;;;;;4.54;71.79;101356.60;1757943;81;25284;-66
2021/03/28 06:39:59;;;;;;;17.00;8.45;;;;;;;4.58;71.54;101359.10;1726517;83;25617;-66
2021/03/28 06:42:46;;;;;;;19.27;9.85;;;;;;;4.62;71.48;101362.91;1726681;83;25577;-66
2021/03/28 06:45:50;;;;;;;15.58;9.18;;;;;;;4.60;71.32;101366.36;1760798;80;27065;-64
2021/03/28 06:48:59;;;;;;;15.45;8.98;;;;;;;4.63;71.30;101373.09;1827353;76;34762;-64
2021/03/28 06:51:37;;;;;;;16.67;9.40;;;;;;;4.61;71.46;101369.31;1807856;77;25664;-63
2021/03/28 06:54:45;;;;;;;16.73;8.75;;;;;;;4.69;71.29;101381.52;1819347;77;25925;-63
2021/03/28 06:57:54;;;;;;;15.13;8.93;;;;;;;4.75;71.37;101381.06;1821242;77;25580;-64
2021/03/28 07:00:44;;;;;;;17.92;8.43;;;;;;;4.76;70.89;101381.36;1754917;80;25496;-64
2021/03/28 07:03:19;;;;;;;17.52;9.35;;;;;;;4.70;70.75;101389.84;1756633;80;25479;-64
2021/03/28 07:06:15;;;;;;;16.05;9.23;;;;;;;4.66;70.77;101391.38;1750172;80;25328;-64
2021/03/28 07:09:01;;;;;;;15.72;9.10;;;;;;;4.63;70.88;101391.84;1741342;80;25715;-64
2021/03/28 07:12:10;;;;;;;15.25;9.55;;;;;;;4.64;71.13;101385.45;1711347;82;25385;-64
2021/03/28 07:15:17;;;;;;;14.87;8.53;;;;;;;4.64;71.14;101390.80;1741261;82;25316;-64
2021/03/28 07:18:21;;;;;;;15.35;8.68;;;;;;;4.64;71.20;101396.17;1722671;80;25539;-63
2021/03/28 07:21:25;;;;;;;16.87;9.33;;;;;;;4.62;71.12;101399.09;1725640;83;25529;-64
2021/03/28 07:24:12;;;;;;;12.73;8.38;;;;;;;4.61;71.35;101405.48;1724688;83;25922;-64
2021/03/28 07:26:55;;;;;;;16.62;9.23;;;;;;;4.62;71.33;101407.13;1725593;83;25482;-64
2021/03/28 07:29:57;;;;;;;16.67;9.00;;;;;;;4.68;71.66;101410.19;1734056;82;25573;-64
2021/03/28 07:32:58;;;;;;;11.25;8.80;;;;;;;4.75;71.45;101407.86;1746878;79;26245;-65
2021/03/28 07:36:03;;;;;;;12.43;8.63;;;;;;;4.91;71.55;101410.29;1745584;79;25592;-64
2021/03/28 07:38:50;;;;;;;12.00;8.43;;;;;;;5.23;71.81;101414.55;1744720;79;25786;-64
2021/03/28 07:41:39;;;;;;;13.32;8.80;;;;;;;5.42;70.90;101409.18;1751492;81;25504;-64
2021/03/28 07:44:59;;;;;;;16.35;9.10;;;;;;;5.60;70.72;101409.95;1751612;81;25514;-64
2021/03/28 07:48:11;;;;;;;16.45;8.80;;;;;;;5.87;70.31;101420.77;1750432;79;25619;-65
2021/03/28 07:51:24;;;;;;;12.85;8.65;;;;;;;5.91;69.62;101401.77;1742650;81;25510;-64
2021/03/28 07:54:29;;;;;;;14.05;8.25;;;;;;;6.04;69.57;101418.59;1743181;81;25845;-64
2021/03/28 07:57:31;;;;;;;15.68;8.88;;;;;;;6.17;69.44;101414.98;1701351;83;25664;-65
2021/03/28 08:00:36;;;;;;;16.50;8.48;;;;;;;6.45;69.39;101413.66;1701361;83;25627;-64
2021/03/28 08:03:44;;;;;;;15.23;8.35;;;;;;;6.58;68.82;101420.52;1700026;83;25613;-64
2021/03/28 08:06:37;;;;;;;15.60;7.53;;;;;;;6.67;68.48;101416.28;1713221;82;25673;-64
2021/03/28 08:09:34;;;;;;;15.83;8.60;;;;;;;6.88;67.58;101421.33;1683123;83;26263;-64
2021/03/28 08:12:31;;;;;;;18.82;10.60;;;;;;;6.95;68.19;101423.27;1704360;83;25669;-64
2021/03/28 08:15:11;;;;;;;20.20;11.63;;;;;;;7.17;68.15;101431.23;1700562;83;25687;-64
2021/03/28 08:18:23;;;;;;;17.42;9.23;;;;;;;7.31;67.64;101434.83;1704184;83;26266;-63
2021/03/28 08:21:13;;;;;;;14.20;9.50;;;;;;;7.20;66.52;101436.11;1709485;82;25549;-65
2021/03/28 08:24:17;;;;;;;15.75;11.60;;;;;;;7.09;65.78;101438.44;1698236;83;28207;-64
2021/03/28 08:27:01;;;;;;;19.98;11.38;;;;;;;6.96;65.05;101432.13;1705316;82;26258;-64
2021/03/28 08:30:12;;;;;;;17.77;10.85;;;;;;;7.03;65.52;101435.41;1863369;76;34680;-64
2021/03/28 08:33:07;;;;;;;16.62;10.13;;;;;;;7.04;65.93;101437.84;1885837;75;34655;-64
2021/03/28 08:35:58;;;;;;;13.30;8.55;;;;;;;6.98;65.36;101442.09;1856190;76;25644;-64
2021/03/28 08:38:42;;;;;;;14.50;8.23;;;;;;;6.89;65.26;101447.14;1844884;76;25750;-64
2021/03/28 08:41:40;;;;;;;13.28;8.90;;;;;;;6.84;65.59;101451.13;1800164;78;25669;-65
2021/03/28 08:44:31;;;;;;;17.50;8.95;;;;;;;6.83;65.49;101444.95;1788411;80;25471;-65
2021/03/28 08:47:09;;;;;;;12.37;7.65;;;;;;;7.18;66.81;101434.19;1792565;79;25326;-64
2021/03/28 08:50:08;;;;;;;11.18;8.48;;;;;;;7.50;66.25;101451.38;1793999;79;25272;-64
2021/03/28 08:53:17;;;;;;;13.83;7.80;;;;;;;7.67;65.76;101442.03;1788273;79;26885;-65
2021/03/28 08:56:39;;;;;;;17.00;7.80;;;;;;;7.91;64.27;101443.51;1777370;79;25663;-63
2021/03/28 08:59:25;;;;;;;12.88;7.60;;;;;;;8.33;65.44;101440.70;1772342;80;25676;-65
2021/03/28 09:02:26;;;;;;;10.88;7.40;;;;;;;8.83;63.80;101449.72;1690590;83;25583;-65
2021/03/28 09:05:18;;;;;;;12.10;7.72;;;;;;;8.75;61.91;101453.22;1685776;83;25708;-66
2021/03/28 09:08:32;;;;;;;12.18;7.75;;;;;;;8.44;59.86;101455.03;1883173;74;34636;-64
2021/03/28 09:11:55;;;;;;;13.68;8.60;;;;;;;8.14;61.04;101459.23;1847298;76;25610;-65
2021/03/28 09:14:39;;;;;;;14.30;7.92;;;;;;;7.95;61.91;101449.98;1848253;75;25752;-64
2021/03/28 09:17:26;;;;;;;13.18;7.90;;;;;;;7.93;61.63;101458.87;1853820;76;26332;-64
2021/03/28 09:20:09;;;;;;;15.83;7.33;;;;;;;7.73;61.30;101460.40;1855118;77;25539;-65
2021/03/28 09:22:50;;;;;;;11.20;7.60;;;;;;;7.55;61.64;101460.83;1845239;76;25525;-65
2021/03/28 09:25:22;;;;;;;15.40;7.03;;;;;;;7.55;62.07;101466.21;1856192;76;25727;-65
2021/03/28 09:28:09;;;;;;;13.08;7.40;;;;;;;7.59;61.92;101465.41;1851525;75;25749;-64
2021/03/28 09:31:25;;;;;;;10.15;7.10;;;;;;;7.58;61.68;101467.84;1834820;76;25335;-65
2021/03/28 09:34:12;;;;;;;14.20;7.85;;;;;;;7.49;61.84;101472.08;1733321;78;25749;-67
2021/03/28 09:36:50;;;;;;;18.57;8.30;;;;;;;7.52;61.84;101465.38;1824644;78;25592;-66
2021/03/28 09:39:29;;;;;;;11.22;7.20;;;;;;;7.55;61.89;101475.09;1837790;77;25594;-65
2021/03/28 09:42:42;;;;;;;14.23;7.85;;;;;;;7.51;61.62;101475.34;1849962;77;26069;-61
2021/03/28 09:45:48;;;;;;;12.95;7.20;;;;;;;7.43;61.17;101475.28;1857369;75;25627;-67
2021/03/28 09:48:45;;;;;;;12.65;7.12;;;;;;;7.41;61.63;101476.08;1864569;76;25448;-65
2021/03/28 09:51:32;;;;;;;13.08;7.15;;;;;;;8.19;63.27;101471.38;1785488;79;25548;-65
2021/03/28 09:54:27;;;;;;;9.73;6.55;;;;;;;8.46;61.59;101480.38;1811367;78;25285;-66
2021/03/28 09:57:43;;;;;;;12.13;7.20;;;;;;;8.38;60.73;101475.76;1735730;79;28047;-65
2021/03/28 10:00:38;;;;;;;11.30;7.10;;;;;;;8.37;61.17;101471.42;1765411;79;25491;-66
2021/03/28 10:03:17;;;;;;;12.45;7.00;;;;;;;9.10;61.44;101477.79;1722365;79;25463;-66
2021/03/28 10:05:46;;;;;;;;;;;;;;;9.23;59.54;101469.16;1818256;79;25255;-66
2021/03/28 10:08:23;;;;;;;12.33;8.38;;;;;;;9.12;59.08;101480.47;1815597;78;25489;-66
2021/03/28 10:11:12;;;;;;;17.23;8.58;;;;;;;9.08;59.83;101476.70;1815548;78;25763;-64
2021/03/28 10:14:08;;;;;;;14.63;9.28;;;;;;;9.23;60.44;101476.42;1815516;79;25567;-66
2021/03/28 10:17:12;;;;;;;15.30;8.63;;;;;;;9.33;60.32;101475.06;1815399;79;25485;-66
2021/03/28 10:19:45;;;;;;;17.98;10.65;;;;;;;9.41;59.70;101474.52;1814631;79;25491;-65
2021/03/28 10:22:49;;;;;;;11.70;7.45;;;;;;;9.87;59.84;101477.67;1808972;79;25528;-65
2021/03/28 10:25:27;;;;;;;10.78;6.50;;;;;;;10.18;58.52;101480.27;1779592;80;27994;-67
2021/03/28 10:28:08;;;;;;;13.70;6.62;;;;;;;10.67;57.96;101476.78;1780126;80;25648;-65
2021/03/28 10:30:51;;;;;;;15.35;7.12;;;;;;;10.66;57.67;101469.77;1780457;80;25320;-65
2021/03/28 10:33:42;;;;;;;14.93;7.60;;;;;;;10.76;57.99;101468.36;1780343;80;25608;-65
2021/03/28 10:36:31;;;;;;;13.30;6.95;;;;;;;10.81;57.08;101470.19;1779340;80;25499;-67
2021/03/28 10:39:21;;;;;;;10.70;6.62;;;;;;;10.54;56.45;101474.70;1780532;80;25708;-66
2021/03/28 10:42:09;;;;;;;16.50;7.87;;;;;;;10.12;55.84;101480.03;1779754;80;25325;-66
2021/03/28 10:45:13;;;;;;;11.18;7.37;;;;;;;9.60;55.90;101480.71;1779339;80;25303;-66
2021/03/28 10:48:28;;;;;;;12.20;7.97;;;;;;;9.19;56.15;101484.80;1780307;80;25505;-66
2021/03/28 10:51:43;;;;;;;13.13;7.85;;;;;;;8.77;57.04;101478.03;1780537;80;25470;-66
2021/03/28 10:54:35;;;;;;;15.63;8.60;;;;;;;8.47;57.40;101473.38;1780454;80;25715;-65
2021/03/28 10:57:35;;;;;;;12.07;8.15;;;;;;;8.22;58.37;101484.86;1814607;79;25417;-66
2021/03/28 11:00:43;;;;;;;14.07;8.23;;;;;;;8.03;58.63;101486.66;1815026;78;25532;-67
2021/03/28 11:03:38;;;;;;;20.92;11.70;;;;;;;7.91;59.17;101487.41;1814967;79;25519;-66
2021/03/28 11:06:22;;;;;;;20.55;10.23;;;;;;;8.02;60.35;101488.30;1815092;78;25441;-66
2021/03/28 11:09:39;;;;;;;15.13;8.93;;;;;;;8.43;60.80;101495.22;1815038;79;25899;-66
2021/03/28 11:12:36;;;;;;;15.48;9.13;;;;;;;8.78;60.40;101490.98;1721455;83;25526;-66
2021/03/28 11:15:34;;;;;;;13.18;9.05;;;;;;;9.03;58.73;101492.90;1802303;78;29696;-66
2021/03/28 11:18:26;;;;;;;19.55;9.63;;;;;;;8.95;58.20;101490.18;1788459;80;25315;-67
2021/03/28 11:21:00;;;;;;;12.10;7.97;;;;;;;8.81;57.83;101499.89;1754079;80;25730;-68
2021/03/28 11:23:58;;;;;;;12.55;8.13;;;;;;;8.56;57.05;101506.03;1743523;81;25575;-67
2021/03/28 11:26:52;;;;;;;12.45;7.37;;;;;;;8.31;57.30;101498.63;1744857;81;25574;-67
2021/03/28 11:29:44;;;;;;;11.88;7.35;;;;;;;8.14;58.07;101498.31;1736393;81;26370;-67
2021/03/28 11:32:33;;;;;;;12.40;7.50;;;;;;;8.19;58.49;101499.69;1734020;82;25523;-67
2021/03/28 11:35:11;;;;;;;14.05;7.20;;;;;;;8.21;57.83;101502.92;1736710;82;25941;-66
2021/03/28 11:38:23;;;;;;;12.20;7.10;;;;;;;8.18;58.00;101493.20;1736630;82;25461;-66
2021/03/28 11:41:09;;;;;;;12.82;7.85;;;;;;;8.14;57.59;101496.97;1736587;82;25491;-67
2021/03/28 11:43:50;;;;;;;11.80;6.87;;;;;;;8.22;58.40;101506.42;1736021;82;25306;-68
2021/03/28 11:46:35;;;;;;;10.93;6.90;;;;;;;8.53;59.00;101499.30;1736045;82;26003;-67
2021/03/28 11:49:15;;;;;;;12.78;6.67;;;;;;;9.13;59.21;101494.25;1736566;82;28087;-67
2021/03/28 11:51:45;;;;;;;;;;;;;;;9.73;58.00;101495.01;1739058;82;25489;-67
2021/03/28 11:54:17;;;;;;;10.25;6.37;;;;;;;9.87;56.00;101501.44;1734180;82;25524;-66
2021/03/28 11:57:09;;;;;;;11.80;6.62;;;;;;;9.89;55.04;101502.52;1736543;82;25544;-67
2021/03/28 11:59:44;;;;;;;11.73;6.95;;;;;;;9.88;55.40;101507.13;1736652;82;25498;-67
2021/03/28 12:02:15;;;;;;;12.75;7.42;;;;;;;9.83;55.37;101502.29;1737542;81;25998;-67
2021/03/28 12:04:54;;;;;;;12.80;7.17;;;;;;;9.80;55.30;101505.53;1737863;81;25603;-68
2021/03/28 12:07:34;;;;;;;12.53;7.25;;;;;;;9.88;55.69;101503.63;1738287;81;25679;-67
2021/03/28 12:10:06;;;;;;;12.40;6.90;;;;;;;10.00;55.30;101498.72;1745265;81;25614;-67
2021/03/28 12:12:42;;;;;;;10.82;7.65;;;;;;;10.37;54.97;101498.88;1741006;81;25506;-66
2021/03/28 12:15:49;;;;;;;11.05;7.03;;;;;;;11.21;55.37;101498.06;1710023;82;25792;-66
2021/03/28 12:18:30;;;;;;;14.75;6.50;;;;;;;11.50;53.24;101492.65;1706236;84;25788;-67
2021/03/28 12:21:10;;;;;;;9.58;5.95;;;;;;;11.81;53.61;101486.91;1706467;84;25537;-67
2021/03/28 12:23:51;;;;;;;8.48;5.87;;;;;;;11.88;51.77;101489.28;1706464;84;25565;-66
2021/03/28 12:26:25;;;;;;;9.35;5.03;;;;;;;11.76;51.47;101493.22;1705961;84;25359;-65
2021/03/28 12:29:01;;;;;;;11.75;5.37;;;;;;;11.63;50.03;101492.53;1719027;82;25744;-66
2021/03/28 12:31:39;;;;;;;8.60;5.30;;;;;;;11.41;49.12;101488.95;1719474;82;25712;-65
2021/03/28 12:34:23;;;;;;;10.32;4.80;;;;;;;11.18;49.61;101495.36;1722635;82;25452;-66
2021/03/28 12:37:14;;;;;;;15.15;6.87;;;;;;;11.00;48.75;101496.87;1710283;82;25521;-66
2021/03/28 12:39:46;;;;;;;8.10;4.58;;;;;;;11.06;49.95;101491.41;1731944;82;25640;-65
2021/03/28 12:42:27;;;;;;;5.92;4.28;;;;;;;11.26;48.32;101491.80;1735024;82;25780;-66
2021/03/28 12:45:16;;;;;;;7.08;4.50;;;;;;;11.08;48.04;101485.16;1734994;82;25500;-66
2021/03/28 12:47:56;;;;;;;9.40;4.85;;;;;;;10.90;47.83;101492.88;1711750;82;25288;-65
2021/03/28 12:50:33;;;;;;;11.48;5.22;;;;;;;10.66;48.71;101495.48;1703428;83;26013;-66
2021/03/28 12:53:15;;;;;;;12.30;6.12;;;;;;;10.58;49.20;101501.47;1711799;82;26176;-66
2021/03/28 12:55:50;;;;;;;12.53;6.75;;;;;;;10.42;49.07;101497.50;1731693;82;25725;-65
2021/03/28 12:58:22;;;;;;;11.53;6.65;;;;;;;10.36;49.70;101498.59;1734872;82;25638;-67
2021/03/28 13:01:25;;;;;;;9.65;6.72;;;;;;;10.31;49.51;101499.95;1735004;82;25334;-67
2021/03/28 13:03:54;;;;;;;10.48;6.47;;;;;;;10.24;49.81;101509.70;1734859;82;25406;-64
2021/03/28 13:06:41;;;;;;;14.53;7.83;;;;;;;10.20;49.61;101510.53;1735362;82;25473;-65
2021/03/28 13:09:13;;;;;;;12.68;6.40;;;;;;;10.41;51.07;101505.34;1734710;82;25788;-66
2021/03/28 13:11:57;;;;;;;11.45;6.08;;;;;;;11.11;51.33;101506.27;1734816;82;25274;-66
2021/03/28 13:14:38;;;;;;;13.78;5.90;;;;;;;11.44;50.69;101498.40;1747542;81;25543;-65
2021/03/28 13:17:30;;;;;;;7.53;5.03;;;;;;;11.52;49.46;101501.30;1766383;81;25528;-64
2021/03/28 13:20:14;;;;;;;8.85;4.55;;;;;;;11.49;48.95;101498.34;1766510;81;25279;-67
2021/03/28 13:22:45;;;;;;;8.55;4.92;;;;;;;11.44;47.94;101501.11;1732341;82;26662;-66
2021/03/28 13:25:27;;;;;;;10.75;5.22;;;;;;;11.21;47.47;101508.89;1732328;82;25598;-66
2021/03/28 13:28:18;;;;;;;7.40;5.17;;;;;;;11.02;47.84;101506.06;1732331;82;25570;-67
2021/03/28 13:30:58;;;;;;;7.72;4.62;;;;;;;11.16;48.17;101511.64;1849449;76;34714;-66
2021/03/28 13:33:37;;;;;;;8.18;4.80;;;;;;;11.00;48.16;101504.19;1816334;78;25352;-66
2021/03/28 13:36:28;;;;;;;10.45;5.90;;;;;;;10.87;46.96;101506.97;1819298;78;25839;-66
2021/03/28 13:39:12;;;;;;;8.80;5.35;;;;;;;10.71;47.72;101504.92;1818426;78;25458;-66
2021/03/28 13:41:49;;;;;;;10.05;5.78;;;;;;;10.60;47.90;101505.50;1818340;78;25486;-66
2021/03/28 13:44:21;;;;;;;11.28;6.22;;;;;;;10.65;48.57;101506.83;1816737;78;25505;-66
2021/03/28 13:46:56;;;;;;;10.20;6.72;;;;;;;10.68;48.54;101510.89;1819418;78;26087;-68
2021/03/28 13:49:48;;;;;;;11.28;6.70;;;;;;;10.70;48.39;101512.77;1819202;78;25747;-66
2021/03/28 13:52:25;;;;;;;9.53;5.80;;;;;;;11.05;48.74;101510.09;1818708;78;25499;-66
2021/03/28 13:55:12;;;;;;;12.58;6.22;;;;;;;11.59;47.38;101510.45;1819386;78;25321;-68
2021/03/28 13:57:42;;;;;;;8.33;4.97;;;;;;;11.70;47.30;101512.53;1819206;78;25517;-67
2021/03/28 14:00:32;;;;;;;8.75;5.12;;;;;;;11.65;46.26;101513.93;1819170;78;25485;-66
2021/03/28 14:03:03;;;;;;;8.45;5.28;;;;;;;11.53;46.74;101512.41;1787518;78;25699;-68
2021/03/28 14:05:33;;;;;;;7.95;4.50;;;;;;;11.40;46.28;101521.19;1806511;78;25590;-67
2021/03/28 14:08:02;;;;;;;8.78;5.05;;;;;;;11.21;45.03;101506.98;1810163;79;25576;-66
2021/03/28 14:10:41;;;;;;;14.20;4.53;;;;;;;10.93;45.37;101505.86;1817274;79;25477;-67
2021/03/28 14:13:24;;;;;;;8.73;5.08;;;;;;;10.77;46.12;101520.02;1817266;78;25421;-67
2021/03/28 14:16:11;;;;;;;10.63;5.80;;;;;;;10.72;46.78;101517.34;1817166;79;28177;-67
2021/03/28 14:18:46;;;;;;;11.15;6.30;;;;;;;10.86;47.52;101524.84;1817223;79;25542;-68
2021/03/28 14:21:30;;;;;;;11.12;6.05;;;;;;;11.31;47.79;101512.07;1817265;78;25362;-68
2021/03/28 14:24:17;;;;;;;10.20;5.72;;;;;;;11.75;47.29;101518.69;1817187;79;25312;-67
2021/03/28 14:27:00;;;;;;;9.65;6.25;;;;;;;11.83;46.48;101513.73;1807835;79;25512;-67
2021/03/28 14:29:38;;;;;;;9.33;5.30;;;;;;;11.71;46.04;101514.13;1817087;78;25982;-67
2021/03/28 14:32:34;;;;;;;9.03;4.55;;;;;;;11.85;46.30;101510.18;1817205;79;25380;-66
2021/03/28 14:35:21;;;;;;;8.50;5.17;;;;;;;12.09;45.11;101514.30;1817377;79;25571;-66
2021/03/28 14:38:22;;;;;;;10.43;5.67;;;;;;;12.23;45.14;101520.63;1817232;79;25226;-68
2021/03/28 14:41:12;;;;;;;8.98;4.03;;;;;;;12.15;44.43;101512.58;1817000;79;25471;-67
2021/03/28 14:44:18;;;;;;;5.90;3.70;;;;;;;11.99;43.81;101517.94;1816622;79;25761;-66
2021/03/28 14:47:23;;;;;;;7.70;3.70;;;;;;;11.74;42.93;101523.05;1816709;79;25397;-68
2021/03/28 14:50:04;;;;;;;7.05;3.55;;;;;;;11.38;43.00;101518.77;1817001;78;25471;-68
2021/03/28 14:52:51;;;;;;;8.95;5.87;;;;;;;11.26;43.23;101520.23;1816125;79;25513;-67
2021/03/28 14:55:41;;;;;;;11.30;6.40;;;;;;;11.21;43.88;101521.08;1816351;78;25474;-67
2021/03/28 14:58:30;;;;;;;8.73;5.67;;;;;;;11.16;44.62;101523.83;1816608;79;25742;-68
2021/03/28 15:01:09;;;;;;;12.75;6.15;;;;;;;11.16;44.80;101514.35;1816455;79;25560;-67
2021/03/28 15:03:50;;;;;;;11.10;6.42;;;;;;;11.05;44.14;101520.40;1816712;78;25740;-67
2021/03/28 15:06:59;;;;;;;13.20;8.25;;;;;;;10.93;44.21;101523.98;1816613;78;25595;-66
2021/03/28 15:09:33;;;;;;;12.07;5.67;;;;;;;10.78;44.36;101524.91;1816885;79;25485;-67
2021/03/28 15:12:16;;;;;;;8.23;4.75;;;;;;;10.62;44.36;101522.30;1789425;77;25783;-67
2021/03/28 15:14:57;;;;;;;9.60;4.87;;;;;;;10.46;44.74;101524.80;1790892;77;25533;-67
2021/03/28 15:17:48;;;;;;;9.53;4.40;;;;;;;10.44;45.03;101527.78;1901781;75;34594;-67
2021/03/28 15:20:43;;;;;;;11.25;4.85;;;;;;;10.29;45.47;101521.05;1880381;76;25441;-67
2021/03/28 15:23:32;;;;;;;13.88;5.97;;;;;;;10.22;45.49;101523.25;1848722;76;25672;-67
2021/03/28 15:26:25;;;;;;;8.63;5.97;;;;;;;10.12;45.44;101527.34;1805845;79;26053;-67
2021/03/28 15:29:05;;;;;;;9.68;6.17;;;;;;;10.04;45.66;101528.16;1821566;78;25558;-68
2021/03/28 15:31:49;;;;;;;14.33;6.08;;;;;;;10.03;45.81;101520.34;1805798;79;25506;-67
2021/03/28 15:34:41;;;;;;;12.33;7.25;;;;;;;10.00;45.85;101525.75;1821615;78;25286;-66
2021/03/28 15:37:39;;;;;;;15.88;7.55;;;;;;;9.97;46.15;101523.59;1805880;79;25689;-68
2021/03/28 15:40:47;;;;;;;11.55;6.50;;;;;;;9.96;46.28;101521.98;1770413;81;25644;-67
2021/03/28 15:43:44;;;;;;;12.20;6.62;;;;;;;9.90;46.27;101526.58;1770487;81;25571;-68
2021/03/28 15:46:25;;;;;;;13.35;5.75;;;;;;;9.80;46.33;101530.65;1770441;81;25490;-66
2021/03/28 15:49:00;;;;;;;10.55;6.53;;;;;;;9.75;46.72;101531.21;1737366;81;25625;-67
2021/03/28 15:51:51;;;;;;;9.70;6.28;;;;;;;9.68;46.74;101529.59;1770469;81;25710;-68
2021/03/28 15:54:44;;;;;;;17.02;5.53;;;;;;;9.65;46.90;101534.21;1769844;81;25559;-67
2021/03/28 15:57:19;;;;;;;11.70;5.70;;;;;;;9.60;47.08;101533.38;1770373;81;25564;-69
2021/03/28 16:00:30;;;;;;;9.15;5.22;;;;;;;9.54;47.08;101529.34;1769576;81;25826;-67
2021/03/28 16:03:19;;;;;;;9.90;5.95;;;;;;;9.48;46.99;101526.39;1770460;81;25628;-68
2021/03/28 16:06:03;;;;;;;10.68;6.20;;;;;;;9.40;47.15;101526.93;1770493;81;25818;-67
2021/03/28 16:09:12;;;;;;;11.63;5.50;;;;;;;9.32;47.13;101529.62;1770343;81;25438;-68
2021/03/28 16:12:01;;;;;;;11.80;5.47;;;;;;;9.22;47.34;101532.31;1770507;81;25506;-67
2021/03/28 16:14:44;;;;;;;12.25;6.42;;;;;;;9.12;47.46;101529.61;1770493;81;25520;-67
2021/03/28 16:17:54;;;;;;;11.08;5.75;;;;;;;9.03;47.60;101530.69;1763427;80;25506;-67
2021/03/28 16:20:47;;;;;;;6.95;4.87;;;;;;;8.95;47.88;101540.66;1760908;81;25723;-68
2021/03/28 16:23:42;;;;;;;11.60;6.20;;;;;;;8.88;48.12;101538.20;1761339;80;25764;-68
2021/03/28 16:26:40;;;;;;;13.55;6.05;;;;;;;8.81;48.36;101535.51;1761177;81;25247;-68
2021/03/28 16:29:31;;;;;;;12.43;7.72;;;;;;;8.75;48.54;101532.80;1760154;81;25474;-68
2021/03/28 16:32:14;;;;;;;32.58;20.62;;;;;;;8.70;48.92;101536.00;1769441;78;25558;-68
2021/03/28 16:35:20;;;;;;;12.55;6.42;;;;;;;8.69;49.22;101541.14;1790243;79;25716;-68
2021/03/28 16:37:52;;;;;;;9.88;5.25;;;;;;;8.68;49.21;101542.20;1777897;80;25327;-68
2021/03/28 16:40:27;;;;;;;15.15;6.30;;;;;;;8.66;49.17;101546.52;1790015;80;25327;-67
2021/03/28 16:43:08;;;;;;;10.50;6.80;;;;;;;8.63;49.48;101543.54;1789225;80;25848;-67
2021/03/28 16:45:46;;;;;;;16.73;7.03;;;;;;;8.62;49.62;101549.48;1777890;80;25269;-68
2021/03/28 16:48:50;;;;;;;11.10;6.20;;;;;;;8.58;49.62;101549.20;1789433;80;28177;-68
2021/03/28 16:51:30;;;;;;;9.53;5.25;;;;;;;8.55;49.69;101541.64;1790274;80;25483;-67
2021/03/28 16:54:01;;;;;;;10.68;5.65;;;;;;;8.50;49.92;101544.31;1789723;79;25536;-67
2021/03/28 16:56:50;;;;;;;11.08;5.40;;;;;;;8.45;49.66;101544.84;1776768;80;25605;-67
2021/03/28 16:59:40;;;;;;;9.13;6.00;;;;;;;8.38;49.86;101544.51;1789575;80;25621;-68
2021/03/28 17:02:32;;;;;;;10.75;6.35;;;;;;;8.33;49.98;101544.48;1776772;80;28097;-69
2021/03/28 17:05:16;;;;;;;11.48;6.08;;;;;;;8.27;50.06;101546.07;1789213;80;25624;-67
2021/03/28 17:08:09;;;;;;;55.35;34.23;;;;;;;8.19;50.18;101548.74;1793251;80;25148;-67
2021/03/28 17:10:51;;;;;;;28.52;16.40;;;;;;;8.09;50.21;101547.31;1732860;80;26273;-67
2021/03/28 17:13:47;;;;;;;11.28;6.60;;;;;;;7.99;50.39;101550.78;1773787;80;25620;-68
2021/03/28 17:16:26;;;;;;;10.78;6.17;;;;;;;7.90;50.36;101546.94;1771563;79;25712;-67
2021/03/28 17:19:03;;;;;;;13.43;6.80;;;;;;;7.82;50.73;101550.95;1782552;78;25346;-68
2021/03/28 17:21:39;;;;;;;10.90;6.22;;;;;;;7.72;50.72;101548.19;1762968;80;25313;-68
2021/03/28 17:27:16;;;;;;;9.88;5.62;;;;;;;7.49;51.36;101554.19;1852071;76;34566;-66
2021/03/28 17:29:50;;;;;;;13.45;7.28;;;;;;;7.33;51.42;101559.19;1818718;77;25110;-68
2021/03/28 17:32:29;;;;;;;14.75;7.45;;;;;;;7.24;51.40;101559.65;1802098;77;25905;-68
2021/03/28 17:35:16;;;;;;;14.30;6.72;;;;;;;7.11;51.70;101555.48;1787827;79;25490;-68
2021/03/28 17:38:00;;;;;;;12.70;7.33;;;;;;;7.00;51.53;101565.05;1787199;80;25474;-69
2021/03/28 17:40:44;;;;;;;14.85;6.45;;;;;;;6.88;51.84;101557.95;1787254;80;25331;-69
2021/03/28 17:43:44;;;;;;;10.90;6.70;;;;;;;6.77;52.40;101562.13;1821008;77;25264;-68
2021/03/28 17:46:11;;;;;;;13.70;7.55;;;;;;;6.58;52.34;101564.34;1818115;77;25734;-68
2021/03/28 17:48:43;;;;;;;12.37;8.10;;;;;;;6.43;52.68;101572.48;1790570;78;25385;-69
2021/03/28 17:51:15;;;;;;;15.32;9.15;;;;;;;6.34;52.91;101572.11;1801472;79;25607;-68
2021/03/28 17:53:42;;;;;;;15.28;8.55;;;;;;;6.23;52.99;101572.22;1795628;78;25772;-68
2021/03/28 17:56:12;;;;;;;11.30;7.60;;;;;;;6.08;53.55;101573.64;1833007;77;26430;-68
2021/03/28 17:58:48;;;;;;;16.35;7.95;;;;;;;5.92;53.61;101574.45;1786175;80;25791;-69
2021/03/28 18:01:36;;;;;;;16.65;7.47;;;;;;;5.75;53.98;101571.77;1794873;79;26156;-67
2021/03/28 18:04:11;;;;;;;13.30;7.40;;;;;;;5.63;54.38;101573.73;1786399;80;25577;-68
2021/03/28 18:06:40;;;;;;;21.00;10.05;;;;;;;5.53;54.67;101577.06;1786725;79;25530;-68
2021/03/28 18:09:23;;;;;;;18.30;9.28;;;;;;;5.41;55.01;101575.28;1796399;79;25534;-69
2021/03/28 18:11:53;;;;;;;17.55;10.38;;;;;;;5.28;55.13;101575.59;1767675;79;25750;-67
2021/03/28 18:14:29;;;;;;;18.25;10.68;;;;;;;5.16;55.37;101581.02;1796767;79;25253;-67
2021/03/28 18:16:57;;;;;;;21.15;11.33;;;;;;;5.04;55.59;101577.05;1796736;79;25425;-69
2021/03/28 18:19:28;;;;;;;34.45;20.95;;;;;;;4.94;55.21;101580.88;1736922;81;25609;-68
2021/03/28 18:22:06;;;;;;;44.45;21.42;;;;;;;4.83;55.41;101575.02;1752950;79;25549;-68
2021/03/28 18:24:38;;;;;;;16.07;9.20;;;;;;;4.74;56.12;101574.59;1740037;79;25709;-68
2021/03/28 18:27:17;;;;;;;13.80;7.97;;;;;;;4.63;56.26;101583.47;1782273;79;25764;-68
2021/03/28 18:30:16;;;;;;;16.50;8.60;;;;;;;4.52;56.37;101578.97;1796168;79;25588;-68
2021/03/28 18:32:46;;;;;;;15.58;8.60;;;;;;;4.41;56.96;101580.10;1725707;80;25305;-68
2021/03/28 18:35:24;;;;;;;17.00;8.55;;;;;;;4.30;57.40;101582.27;1745494;81;25606;-68
2021/03/28 18:38:07;;;;;;;14.43;8.18;;;;;;;4.20;57.46;101585.53;1738786;81;26624;-69
2021/03/28 18:40:54;;;;;;;14.78;8.95;;;;;;;4.08;57.77;101590.89;1730685;82;25810;-69
2021/03/28 18:43:30;;;;;;;17.55;8.18;;;;;;;3.97;58.16;101588.21;1749400;79;25585;-69
2021/03/28 18:46:10;;;;;;;12.93;7.78;;;;;;;3.87;58.44;101594.97;1650863;85;25793;-67
2021/03/28 18:48:43;;;;;;;16.02;8.53;;;;;;;3.77;58.40;101589.91;1666797;85;25625;-66
2021/03/28 18:51:15;;;;;;;12.82;7.92;;;;;;;3.68;58.85;101590.78;1669235;85;25738;-67
2021/03/28 18:53:58;;;;;;;16.52;9.15;;;;;;;3.58;58.84;101584.65;1668806;85;25504;-67
2021/03/28 18:56:26;;;;;;;16.62;9.25;;;;;;;3.49;59.23;101588.19;1652593;85;25676;-67
2021/03/28 18:59:04;;;;;;;17.00;9.37;;;;;;;3.44;59.24;101585.88;1704132;84;25402;-67
2021/03/28 19:01:37;;;;;;;19.30;8.85;;;;;;;3.39;59.37;101593.28;1703924;84;25319;-67
2021/03/28 19:04:27;;;;;;;23.55;9.68;;;;;;;3.31;59.68;101590.39;1702791;82;26696;-67